Sisimiut, Greenland
Current Conditions -  °F | °C
As of 5:50 PM on Friday 21 Nov 2014 (Local Time) from BGSF Reporting Station
Broken Clouds Broken Clouds  
Wind Chill: 17°   Ceiling: 20000
Heat Index: 27°   Visibility: 6mi
Dew Point: 14°   Wind: 10mph
Humidity: 59%   Direction: 60°ENE
Pressure: 29.47"   Gusts: NA
Location:  66.92°N, 53.66°W
Report Text: BGSF 211950Z AUTO 06009KT 9999NDV FEW070/// BKN200/// M03/M10 Q0998
Loading
Personal Weather Stations






























Interactive Weather Map New forecast layout! Learn more

10-Day Weather Forecast

Advertisements
Track Severe Weather on mobile